Post Falls, ID

7:31 PM PDT on October 20, 2014 (GMT -0700)
ITD Railroad Bridge ID US | Change Station
CLOSE
Current Station
Personal Weather Station
Location: Post Falls, ID
Elevation: 2153 ft
Nearby Weather Stations

Elev 2153 ft 47.71 °N, 116.95 °W | Updated 46 minutes ago

Partly Cloudy
Partly Cloudy
59 °F
Feels Like 59 °F
N
3
Wind Variable Wind from SSE
Gusts 4.0 mph

Today
High -- | Low -- °F
--% Chance of Precip.
Yesterday
High -- | Low -- °F
Precip. -- in
7:14 AM 5:50 PM
Waning Crescent, 8% visible
Pressure 29.73 in
Visibility 10.0 miles
Clouds Clear
Dew Point 44 °F
Humidity 58%
Rainfall 0.00 in
Snow Depth Not available.
UV 0 out of 12
Pollen 2.90 out of 12
Air Quality Not available.
Flu Activity Not available.
METAR KCOE 210215Z AUTO 21005KT 10SM CLR 13/06 A2973 RMK AO1

More Conditions Fewer Conditions

Pressure 29.73 in
Visibility 10.0 miles
Clouds Clear
Dew Point 44 °F
Humidity 58%
Rainfall 0.00 in
Snow Depth Not available.
UV 0 out of 12
Pollen 2.90 out of 12
Air Quality Not available.
Flu Activity Not available.
METAR KCOE 210215Z AUTO 21005KT 10SM CLR 13/06 A2973 RMK AO1

More Conditions Fewer Conditions

10-Day Weather Forecast

Almanac

Astronomy

Oct. 20, 2014 Rise Set
Actual Time 7:14 AM PDT 5:50 PM PDT
Civil Twilight 6:42 AM PDT 6:21 PM PDT
Nautical Twilight 6:06 AM PDT 6:57 PM PDT
Astronomical Twilight 5:31 AM PDT 7:32 PM PDT
Moon 3:53 AM PDT (10/20) 4:26 PM PDT (10/20)
Length of Visible Light 11h 38m
Length of Day
10h 35m
Tomorrow will be 3m 16s shorter.
Waning Crescent, 8% of the Moon is Illuminated
Today
Waning Crescent
Oct 23
New
Oct 30
First Quarter
Nov 6
Full
Nov 14
Last Quarter

Today's Extremes

State Highs State Lows

Community

WunderPhotos

Upload Photos

1,763,577 photos uploaded!

Nearby

Snow Depth

Station Depth Elevation
Mosquito Ridge 0 in 5200 ft
Schweitzer Basin 0 in 6090 ft
Mica Creek 1 in 4750 ft
Sunset 0 in 5540 ft
Bear Mountain 0 in 5400 ft

Earthquake Activity

City Distance Mag. Time & Date
No recent earthquake activity has been reported nearby.
Minimum magnitude displayed is 2.5.

Coastal Water Temperatures

Place Temperature
No Stations Reporting

Nearby Weather Stations